»·PEaware :: N623JB KSNA-KSEE

N623JB :: KSNA-KSEE

FLIGHT INFORMATION

Flight Status: Arrived
Operator: Privately registered:
United States
More flights under this callsign
Pilot: Jonathan B. (32222)
Aircraft: CIRRUS SR-22
(SR22)
More flights by this aircraft type
Origin: KSNA John Wayne-Orange Co
United States
Destination: KSEE Gillespie
United States
More flights between these airports :: More routes between these airports
Route: V23 MZB
File this flight plan on PilotEdge
Remarks:
Altitude:
(Current/Filed)
5,000ft
Speed:
(Current/Filed)
140kts
Departed: 19-Nov-20 08:29 AM
Arrived: 19-Nov-20 09:07 AM
Distance/Time
Traveled:
0nm/0:37
Distance/Time
To Go:
Arrived

Flight Plot

Page will automatically refresh every two minutes.


Map Options




Map Legend


Flown Route
Filed Route
Departure Airport
Arrival Airport
Navaid (VOR, NDB)
Fix

Horizontal Profiles

Position Reports

Time Latitude Longitude Heading Altitude Ground
Speed
19-Nov-20 08:12 33.676157 -117.870972 183 52ft 0kts
19-Nov-20 08:13 33.676157 -117.870972 183 52ft 0kts
19-Nov-20 08:14 33.676157 -117.870972 183 52ft 0kts
19-Nov-20 08:15 33.676157 -117.870972 183 52ft 0kts
19-Nov-20 08:16 33.676157 -117.870972 183 52ft 0kts
19-Nov-20 08:17 33.676157 -117.870972 183 52ft 0kts
19-Nov-20 08:18 33.676157 -117.870972 183 52ft 0kts
19-Nov-20 08:19 33.676157 -117.870972 183 52ft 0kts
19-Nov-20 08:20 33.676157 -117.870972 183 52ft 0kts
19-Nov-20 08:21 33.676157 -117.870972 183 52ft 0kts
19-Nov-20 08:22 33.676442 -117.870950 183 52ft 0kts
19-Nov-20 08:23 33.677935 -117.868918 27 50ft 14kts
19-Nov-20 08:24 33.681215 -117.866451 113 43ft 0kts
19-Nov-20 08:25 33.681215 -117.866451 113 43ft 0kts
19-Nov-20 08:26 33.681215 -117.866451 113 43ft 0kts
19-Nov-20 08:27 33.681215 -117.866451 113 43ft 0kts
19-Nov-20 08:28 33.676299 -117.868440 206 72ft 83kts
19-Nov-20 08:29 33.650475 -117.878834 186 935ft 101kts
19-Nov-20 08:30 33.621448 -117.883707 188 2340ft 106kts
19-Nov-20 08:31 33.591717 -117.888710 189 3789ft 108kts
19-Nov-20 08:32 33.560577 -117.892044 187 4901ft 130kts
19-Nov-20 08:33 33.520195 -117.896590 187 5004ft 148kts
19-Nov-20 08:34 33.499076 -117.862206 98 5019ft 152kts
19-Nov-20 08:35 33.490506 -117.811674 101 5020ft 159kts
19-Nov-20 08:36 33.480555 -117.758508 103 5017ft 164kts
19-Nov-20 08:37 33.469550 -117.705366 104 5019ft 164kts
19-Nov-20 08:38 33.453757 -117.657272 147 5020ft 162kts
19-Nov-20 08:39 33.420856 -117.620400 139 5019ft 163kts
19-Nov-20 08:40 33.388024 -117.582700 138 5016ft 163kts
19-Nov-20 08:41 33.355415 -117.545449 129 5017ft 162kts
19-Nov-20 08:42 33.324412 -117.507172 136 5018ft 160kts
19-Nov-20 08:43 33.295603 -117.476296 137 5017ft 158kts
19-Nov-20 08:44 33.262978 -117.441878 140 5018ft 156kts
19-Nov-20 08:45 33.229880 -117.408411 130 5015ft 156kts
19-Nov-20 08:46 33.198523 -117.372979 137 5015ft 156kts
19-Nov-20 08:47 33.162565 -117.358556 210 5017ft 151kts
19-Nov-20 08:48 33.124449 -117.370250 157 5015ft 154kts
19-Nov-20 08:49 33.082843 -117.361701 172 5015ft 154kts
19-Nov-20 08:50 33.041758 -117.346424 160 5015ft 155kts
19-Nov-20 08:51 33.001043 -117.328881 162 5014ft 155kts
19-Nov-20 08:52 32.960117 -117.312092 162 5014ft 155kts
19-Nov-20 08:53 32.919129 -117.295669 163 5014ft 155kts
19-Nov-20 08:54 32.878093 -117.279538 163 5014ft 155kts
19-Nov-20 08:55 32.837026 -117.263678 163 5017ft 156kts
19-Nov-20 08:56 32.795938 -117.246814 151 5011ft 157kts
19-Nov-20 08:57 32.781885 -117.203242 80 5016ft 157kts
19-Nov-20 08:58 32.782678 -117.150945 94 4361ft 155kts
19-Nov-20 08:59 32.772216 -117.105663 110 4032ft 134kts
19-Nov-20 09:00 32.757918 -117.065812 115 4007ft 129kts
19-Nov-20 09:01 32.760944 -117.024981 70 4002ft 128kts
19-Nov-20 09:02 32.780168 -116.990954 34 3542ft 132kts
19-Nov-20 09:03 32.803820 -116.958264 92 1996ft 111kts
19-Nov-20 09:04 32.819610 -116.941113 324 1345ft 92kts
19-Nov-20 09:05 32.826935 -116.967400 281 381ft 64kts
19-Nov-20 09:06 32.826377 -116.972972 180 371ft 8kts
19-Nov-20 09:07 33.676158 -117.870972 183 47ft 0kts
19-Nov-20 09:08 33.676157 -117.870972 183 52ft 0kts
19-Nov-20 09:09 33.676157 -117.870972 183 52ft 0kts
19-Nov-20 09:10 33.676157 -117.870972 183 52ft 0kts
19-Nov-20 09:11 33.676237 -117.870966 183 52ft 2kts
19-Nov-20 09:12 33.676498 -117.870946 183 52ft 0kts
19-Nov-20 09:13 33.676498 -117.870946 183 52ft 0kts
19-Nov-20 09:14 33.676498 -117.870946 183 52ft 0kts
19-Nov-20 09:16 33.676498 -117.870946 183 52ft 0kts
19-Nov-20 09:17 33.676494 -117.870946 182 52ft 0kts
19-Nov-20 09:18 33.676494 -117.870946 182 52ft 0kts
19-Nov-20 09:19 33.676494 -117.870946 182 52ft 0kts
19-Nov-20 09:20 33.676494 -117.870946 182 52ft 0kts
19-Nov-20 09:21 33.676494 -117.870946 182 52ft 0kts

Navigation Log

Ident Type
Flight plan parsing failed, navigation log unavailable